sensor_id;sensor_type;location;lat;lon;timestamp;pressure;altitude;pressure_sealevel;temperature;humidity
7832;BME280;3961;42.058;25.586;2023-02-18T00:00:53;62719.50;;;4.48;68.85
7832;BME280;3961;42.058;25.586;2023-02-18T00:03:18;62717.44;;;4.49;69.81
7832;BME280;3961;42.058;25.586;2023-02-18T00:05:44;62724.88;;;4.55;69.40
7832;BME280;3961;42.058;25.586;2023-02-18T00:08:09;62757.03;;;4.84;68.00
7832;BME280;3961;42.058;25.586;2023-02-18T00:10:35;62768.16;;;4.96;67.50
7832;BME280;3961;42.058;25.586;2023-02-18T00:13:00;62780.53;;;5.04;66.52
7832;BME280;3961;42.058;25.586;2023-02-18T00:15:26;62788.66;;;5.07;66.38
7832;BME280;3961;42.058;25.586;2023-02-18T00:17:51;62763.31;;;4.89;66.77
7832;BME280;3961;42.058;25.586;2023-02-18T00:20:17;62752.75;;;4.78;67.54
7832;BME280;3961;42.058;25.586;2023-02-18T00:22:42;62727.88;;;4.53;69.38
7832;BME280;3961;42.058;25.586;2023-02-18T00:25:08;62748.19;;;4.73;69.77
7832;BME280;3961;42.058;25.586;2023-02-18T00:27:34;62730.06;;;4.60;69.32
7832;BME280;3961;42.058;25.586;2023-02-18T00:29:59;62687.63;;;4.22;69.23
7832;BME280;3961;42.058;25.586;2023-02-18T00:32:24;62635.47;;;3.76;71.92
7832;BME280;3961;42.058;25.586;2023-02-18T00:34:50;62639.72;;;3.82;71.84
7832;BME280;3961;42.058;25.586;2023-02-18T00:37:16;62667.91;;;4.02;71.81
7832;BME280;3961;42.058;25.586;2023-02-18T00:39:41;62631.78;;;3.70;73.00
7832;BME280;3961;42.058;25.586;2023-02-18T00:42:07;62650.72;;;3.87;72.80
7832;BME280;3961;42.058;25.586;2023-02-18T00:44:32;62611.66;;;3.57;74.43
7832;BME280;3961;42.058;25.586;2023-02-18T00:46:57;62603.72;;;3.46;75.22
7832;BME280;3961;42.058;25.586;2023-02-18T00:49:23;62597.91;;;3.45;75.56
7832;BME280;3961;42.058;25.586;2023-02-18T00:51:48;62608.56;;;3.52;76.13
7832;BME280;3961;42.058;25.586;2023-02-18T00:54:14;62631.47;;;3.72;75.53
7832;BME280;3961;42.058;25.586;2023-02-18T00:56:40;62641.22;;;3.81;75.06
7832;BME280;3961;42.058;25.586;2023-02-18T00:59:05;62623.94;;;3.70;75.73
7832;BME280;3961;42.058;25.586;2023-02-18T01:01:31;62579.56;;;3.29;78.71
7832;BME280;3961;42.058;25.586;2023-02-18T01:03:57;62590.78;;;3.36;78.68
7832;BME280;3961;42.058;25.586;2023-02-18T01:06:22;62536.66;;;2.91;79.20
7832;BME280;3961;42.058;25.586;2023-02-18T01:08:48;62558.47;;;3.06;79.25
7832;BME280;3961;42.058;25.586;2023-02-18T01:11:14;62577.06;;;3.24;80.05
7832;BME280;3961;42.058;25.586;2023-02-18T01:13:41;62571.00;;;3.21;81.45
7832;BME280;3961;42.058;25.586;2023-02-18T01:16:07;62576.25;;;3.21;82.11
7832;BME280;3961;42.058;25.586;2023-02-18T01:18:32;62587.09;;;3.31;80.75
7832;BME280;3961;42.058;25.586;2023-02-18T01:20:58;62565.84;;;3.17;81.73
7832;BME280;3961;42.058;25.586;2023-02-18T01:23:24;62536.09;;;2.90;82.37
7832;BME280;3961;42.058;25.586;2023-02-18T01:25:50;62575.34;;;3.23;82.14
7832;BME280;3961;42.058;25.586;2023-02-18T01:28:16;62573.38;;;3.19;82.17
7832;BME280;3961;42.058;25.586;2023-02-18T01:30:42;62570.84;;;3.14;82.25
7832;BME280;3961;42.058;25.586;2023-02-18T01:33:08;62587.69;;;3.31;81.81
7832;BME280;3961;42.058;25.586;2023-02-18T01:35:37;62603.16;;;3.45;80.23
7832;BME280;3961;42.058;25.586;2023-02-18T01:38:03;62576.25;;;3.21;80.62
7832;BME280;3961;42.058;25.586;2023-02-18T01:40:29;62549.56;;;3.00;81.88
7832;BME280;3961;42.058;25.586;2023-02-18T01:42:54;62564.47;;;3.13;82.45
7832;BME280;3961;42.058;25.586;2023-02-18T01:48:22;62525.53;;;2.79;84.93
7832;BME280;3961;42.058;25.586;2023-02-18T01:50:56;62557.59;;;3.07;84.30
7832;BME280;3961;42.058;25.586;2023-02-18T01:53:46;62547.84;;;2.98;83.77
7832;BME280;3961;42.058;25.586;2023-02-18T01:56:18;62540.06;;;2.94;85.18
7832;BME280;3961;42.058;25.586;2023-02-18T01:58:44;62550.13;;;3.00;84.40
7832;BME280;3961;42.058;25.586;2023-02-18T02:01:10;62560.78;;;3.08;83.81
7832;BME280;3961;42.058;25.586;2023-02-18T02:03:35;62523.25;;;2.77;83.74
7832;BME280;3961;42.058;25.586;2023-02-18T02:06:01;62542.78;;;2.89;84.50
7832;BME280;3961;42.058;25.586;2023-02-18T02:08:28;62536.66;;;2.91;84.32
7832;BME280;3961;42.058;25.586;2023-02-18T02:11:11;62525.28;;;2.76;84.27
7832;BME280;3961;42.058;25.586;2023-02-18T02:36:38;62528.72;;;2.79;82.32
7832;BME280;3961;42.058;25.586;2023-02-18T02:39:19;62526.03;;;2.84;82.67
7832;BME280;3961;42.058;25.586;2023-02-18T02:42:39;62557.91;;;3.05;82.02
7832;BME280;3961;42.058;25.586;2023-02-18T02:44:53;62535.59;;;2.85;83.24
7832;BME280;3961;42.058;25.586;2023-02-18T02:47:50;62495.22;;;2.52;86.19
7832;BME280;3961;42.058;25.586;2023-02-18T02:53:07;62496.69;;;2.51;86.82
7832;BME280;3961;42.058;25.586;2023-02-18T02:55:37;62502.66;;;2.58;86.30
7832;BME280;3961;42.058;25.586;2023-02-18T02:58:03;62474.94;;;2.31;85.50
7832;BME280;3961;42.058;25.586;2023-02-18T03:00:38;62477.47;;;2.36;84.22
7832;BME280;3961;42.058;25.586;2023-02-18T03:03:34;62466.69;;;2.22;85.10
7832;BME280;3961;42.058;25.586;2023-02-18T03:11:18;62447.41;;;2.12;87.33
7832;BME280;3961;42.058;25.586;2023-02-18T03:16:48;62489.47;;;2.47;86.56
7832;BME280;3961;42.058;25.586;2023-02-18T03:22:04;62462.84;;;2.25;87.35
7832;BME280;3961;42.058;25.586;2023-02-18T03:24:42;62450.34;;;2.10;89.54
7832;BME280;3961;42.058;25.586;2023-02-18T03:27:15;62450.91;;;2.10;89.74
7832;BME280;3961;42.058;25.586;2023-02-18T03:29:44;62460.31;;;2.21;89.69
7832;BME280;3961;42.058;25.586;2023-02-18T03:32:12;62476.88;;;2.35;89.01
7832;BME280;3961;42.058;25.586;2023-02-18T03:34:44;62458.03;;;2.19;90.39
7832;BME280;3961;42.058;25.586;2023-02-18T03:37:12;62480.31;;;2.39;89.90
7832;BME280;3961;42.058;25.586;2023-02-18T03:39:40;62492.91;;;2.50;88.53
7832;BME280;3961;42.058;25.586;2023-02-18T03:42:07;62494.31;;;2.53;87.84
7832;BME280;3961;42.058;25.586;2023-02-18T03:44:33;62517.84;;;2.69;87.20
7832;BME280;3961;42.058;25.586;2023-02-18T03:46:59;62514.41;;;2.66;86.67
7832;BME280;3961;42.058;25.586;2023-02-18T03:49:24;62513.25;;;2.65;85.56
7832;BME280;3961;42.058;25.586;2023-02-18T03:51:49;62488.91;;;2.46;83.88
7832;BME280;3961;42.058;25.586;2023-02-18T03:54:15;62462.28;;;2.25;83.64
7832;BME280;3961;42.058;25.586;2023-02-18T03:56:41;62443.16;;;2.06;85.02
7832;BME280;3961;42.058;25.586;2023-02-18T03:59:07;62444.28;;;2.07;86.36
7832;BME280;3961;42.058;25.586;2023-02-18T04:01:32;62420.78;;;1.90;89.11
7832;BME280;3961;42.058;25.586;2023-02-18T04:03:58;62411.72;;;1.78;91.17
7832;BME280;3961;42.058;25.586;2023-02-18T04:06:24;62415.72;;;1.81;90.12
7832;BME280;3961;42.058;25.586;2023-02-18T04:08:49;62416.03;;;1.79;90.63
7832;BME280;3961;42.058;25.586;2023-02-18T04:11:15;62400.84;;;1.68;91.71
7832;BME280;3961;42.058;25.586;2023-02-18T04:13:41;62396.84;;;1.64;92.53
7832;BME280;3961;42.058;25.586;2023-02-18T04:16:06;62419.81;;;1.80;91.85
7832;BME280;3961;42.058;25.586;2023-02-18T04:18:32;62429.44;;;1.93;92.57
7832;BME280;3961;42.058;25.586;2023-02-18T04:20:57;62418.56;;;1.84;93.87
7832;BME280;3961;42.058;25.586;2023-02-18T04:23:23;62439.16;;;2.02;92.40
7832;BME280;3961;42.058;25.586;2023-02-18T04:25:49;62451.50;;;2.11;92.12
7832;BME280;3961;42.058;25.586;2023-02-18T04:28:15;62469.69;;;2.31;90.39
7832;BME280;3961;42.058;25.586;2023-02-18T04:30:45;62474.84;;;2.36;89.25
7832;BME280;3961;42.058;25.586;2023-02-18T04:33:11;62467.50;;;2.25;89.65
7832;BME280;3961;42.058;25.586;2023-02-18T04:35:37;62426.59;;;1.91;90.93
7832;BME280;3961;42.058;25.586;2023-02-18T04:38:06;62439.41;;;2.05;90.03
7832;BME280;3961;42.058;25.586;2023-02-18T04:40:32;62444.88;;;2.07;91.07
7832;BME280;3961;42.058;25.586;2023-02-18T04:42:58;62460.88;;;2.21;89.91
7832;BME280;3961;42.058;25.586;2023-02-18T04:45:24;62480.66;;;2.36;88.48
7832;BME280;3961;42.058;25.586;2023-02-18T04:47:50;62468.41;;;2.23;87.86
7832;BME280;3961;42.058;25.586;2023-02-18T04:50:16;62453.94;;;2.20;88.56
7832;BME280;3961;42.058;25.586;2023-02-18T04:52:42;62494.06;;;2.51;87.36
7832;BME280;3961;42.058;25.586;2023-02-18T04:55:07;62459.50;;;2.18;86.13
7832;BME280;3961;42.058;25.586;2023-02-18T04:57:33;62465.13;;;2.27;85.04
7832;BME280;3961;42.058;25.586;2023-02-18T04:59:58;62471.75;;;2.31;85.88
7832;BME280;3961;42.058;25.586;2023-02-18T05:02:23;62487.53;;;2.43;86.33
7832;BME280;3961;42.058;25.586;2023-02-18T05:04:49;62436.84;;;2.00;88.76
7832;BME280;3961;42.058;25.586;2023-02-18T05:07:15;62441.69;;;2.07;88.44
7832;BME280;3961;42.058;25.586;2023-02-18T05:09:41;62440.88;;;2.03;90.21
7832;BME280;3961;42.058;25.586;2023-02-18T05:12:06;62440.88;;;2.03;87.65
7832;BME280;3961;42.058;25.586;2023-02-18T05:14:31;62416.84;;;1.82;87.89
7832;BME280;3961;42.058;25.586;2023-02-18T05:16:57;62429.44;;;1.93;88.47
7832;BME280;3961;42.058;25.586;2023-02-18T05:19:23;62439.47;;;2.00;88.62
7832;BME280;3961;42.058;25.586;2023-02-18T05:21:48;62456.56;;;2.20;88.46
7832;BME280;3961;42.058;25.586;2023-02-18T05:24:13;62475.41;;;2.36;87.12
7832;BME280;3961;42.058;25.586;2023-02-18T05:26:39;62452.63;;;2.12;88.50
7832;BME280;3961;42.058;25.586;2023-02-18T05:29:05;62443.97;;;2.09;87.94
7832;BME280;3961;42.058;25.586;2023-02-18T05:31:30;62476.31;;;2.35;87.35
7832;BME280;3961;42.058;25.586;2023-02-18T05:33:56;62476.66;;;2.33;87.26
7832;BME280;3961;42.058;25.586;2023-02-18T05:36:21;62467.75;;;2.27;86.33
7832;BME280;3961;42.058;25.586;2023-02-18T05:38:47;62437.44;;;2.00;89.46
7832;BME280;3961;42.058;25.586;2023-02-18T05:41:12;62464.91;;;2.25;89.25
7832;BME280;3961;42.058;25.586;2023-02-18T05:43:38;62496.44;;;2.48;87.12
7832;BME280;3961;42.058;25.586;2023-02-18T05:46:22;62438.25;;;2.03;86.92
7832;BME280;3961;42.058;25.586;2023-02-18T05:48:47;62417.69;;;1.85;88.99
7832;BME280;3961;42.058;25.586;2023-02-18T05:51:13;62441.19;;;2.01;89.94
7832;BME280;3961;42.058;25.586;2023-02-18T05:53:39;62441.44;;;2.04;89.99
7832;BME280;3961;42.058;25.586;2023-02-18T05:56:06;62462.59;;;2.23;88.64
7832;BME280;3961;42.058;25.586;2023-02-18T05:58:31;62482.63;;;2.41;88.04
7832;BME280;3961;42.058;25.586;2023-02-18T06:00:57;62422.00;;;1.87;86.84
7832;BME280;3961;42.058;25.586;2023-02-18T06:03:22;62512.03;;;2.69;85.13
7832;BME280;3961;42.058;25.586;2023-02-18T06:05:52;62512.13;;;2.64;84.80
7832;BME280;3961;42.058;25.586;2023-02-18T06:08:17;62536.97;;;2.89;83.35
7832;BME280;3961;42.058;25.586;2023-02-18T06:10:45;62519.00;;;2.70;84.90
7832;BME280;3961;42.058;25.586;2023-02-18T06:13:10;62508.03;;;2.65;87.13
7832;BME280;3961;42.058;25.586;2023-02-18T06:15:37;62502.66;;;2.58;89.44
7832;BME280;3961;42.058;25.586;2023-02-18T06:18:04;62503.78;;;2.59;89.29
7832;BME280;3961;42.058;25.586;2023-02-18T06:20:30;62529.28;;;2.80;89.38
7832;BME280;3961;42.058;25.586;2023-02-18T06:22:55;62530.44;;;2.81;90.29
7832;BME280;3961;42.058;25.586;2023-02-18T06:25:21;62543.50;;;2.97;87.34
7832;BME280;3961;42.058;25.586;2023-02-18T06:27:46;62584.50;;;3.31;84.64
7832;BME280;3961;42.058;25.586;2023-02-18T06:30:12;62576.00;;;3.19;84.07
7832;BME280;3961;42.058;25.586;2023-02-18T06:32:38;62596.53;;;3.42;83.79
7832;BME280;3961;42.058;25.586;2023-02-18T06:35:04;62610.84;;;3.54;82.73
7832;BME280;3961;42.058;25.586;2023-02-18T06:37:29;62614.84;;;3.58;81.39
7832;BME280;3961;42.058;25.586;2023-02-18T06:39:55;62667.31;;;4.02;80.60
7832;BME280;3961;42.058;25.586;2023-02-18T06:42:21;62682.22;;;4.15;79.33
7832;BME280;3961;42.058;25.586;2023-02-18T06:44:46;62697.63;;;4.33;79.04
7832;BME280;3961;42.058;25.586;2023-02-18T06:47:12;62720.31;;;4.51;76.81
7832;BME280;3961;42.058;25.586;2023-02-18T06:49:37;62728.56;;;4.61;75.47
7832;BME280;3961;42.058;25.586;2023-02-18T06:52:04;62739.00;;;4.65;75.35
7832;BME280;3961;42.058;25.586;2023-02-18T06:54:30;62769.63;;;4.95;73.85
7832;BME280;3961;42.058;25.586;2023-02-18T06:56:56;62767.34;;;4.93;73.42
7832;BME280;3961;42.058;25.586;2023-02-18T06:59:21;62769.06;;;4.94;73.64
7832;BME280;3961;42.058;25.586;2023-02-18T07:01:47;62769.06;;;4.94;73.07
7832;BME280;3961;42.058;25.586;2023-02-18T07:04:12;62779.63;;;5.06;72.92
7832;BME280;3961;42.058;25.586;2023-02-18T07:06:38;62815.88;;;5.33;71.70
7832;BME280;3961;42.058;25.586;2023-02-18T07:09:04;62809.22;;;5.30;71.78
7832;BME280;3961;42.058;25.586;2023-02-18T07:11:30;62831.97;;;5.48;71.42
7832;BME280;3961;42.058;25.586;2023-02-18T07:13:55;62850.00;;;5.66;70.80
7832;BME280;3961;42.058;25.586;2023-02-18T07:16:21;62901.25;;;6.06;69.93
7832;BME280;3961;42.058;25.586;2023-02-18T07:18:46;62896.88;;;6.05;72.48
7832;BME280;3961;42.058;25.586;2023-02-18T07:21:12;62914.94;;;6.23;73.36
7832;BME280;3961;42.058;25.586;2023-02-18T07:23:37;62902.31;;;6.12;72.96
7832;BME280;3961;42.058;25.586;2023-02-18T07:26:08;62891.72;;;6.00;73.45
7832;BME280;3961;42.058;25.586;2023-02-18T07:28:33;62864.03;;;5.81;73.83
7832;BME280;3961;42.058;25.586;2023-02-18T07:30:59;62903.44;;;6.13;72.34
7832;BME280;3961;42.058;25.586;2023-02-18T07:33:25;62939.09;;;6.45;70.43
7832;BME280;3961;42.058;25.586;2023-02-18T07:35:54;62972.19;;;6.71;70.71
7832;BME280;3961;42.058;25.586;2023-02-18T07:38:20;62996.31;;;6.93;69.47
7832;BME280;3961;42.058;25.586;2023-02-18T07:40:46;63023.59;;;7.19;68.45
7832;BME280;3961;42.058;25.586;2023-02-18T07:43:11;63011.53;;;7.08;68.65
7832;BME280;3961;42.058;25.586;2023-02-18T07:45:37;63033.03;;;7.30;67.52
7832;BME280;3961;42.058;25.586;2023-02-18T07:48:03;63026.81;;;7.20;67.08
7832;BME280;3961;42.058;25.586;2023-02-18T07:50:29;63059.28;;;7.51;67.48
7832;BME280;3961;42.058;25.586;2023-02-18T07:53:03;63091.16;;;7.81;66.63
7832;BME280;3961;42.058;25.586;2023-02-18T07:55:29;63109.94;;;7.95;65.59
7832;BME280;3961;42.058;25.586;2023-02-18T08:00:43;63117.19;;;7.99;65.58
7832;BME280;3961;42.058;25.586;2023-02-18T08:03:09;63113.16;;;7.96;67.34
7832;BME280;3961;42.058;25.586;2023-02-18T08:05:35;63156.94;;;8.34;66.96
7832;BME280;3961;42.058;25.586;2023-02-18T08:08:00;63154.53;;;8.37;66.54
7832;BME280;3961;42.058;25.586;2023-02-18T08:10:26;63182.88;;;8.57;66.17
7832;BME280;3961;42.058;25.586;2023-02-18T08:12:51;63167.78;;;8.49;65.61
7832;BME280;3961;42.058;25.586;2023-02-18T08:15:17;63174.78;;;8.50;65.58
7832;BME280;3961;42.058;25.586;2023-02-18T08:17:42;63166.38;;;8.45;66.53
7832;BME280;3961;42.058;25.586;2023-02-18T08:20:08;63174.47;;;8.52;66.21
7832;BME280;3961;42.058;25.586;2023-02-18T08:22:34;63206.16;;;8.80;65.29
7832;BME280;3961;42.058;25.586;2023-02-18T08:25:00;63240.72;;;9.10;63.71
7832;BME280;3961;42.058;25.586;2023-02-18T08:27:25;63255.72;;;9.24;63.11
7832;BME280;3961;42.058;25.586;2023-02-18T08:29:51;63278.78;;;9.44;62.45
7832;BME280;3961;42.058;25.586;2023-02-18T08:32:16;63275.13;;;9.38;62.80
7832;BME280;3961;42.058;25.586;2023-02-18T08:34:42;63290.91;;;9.55;61.83
7832;BME280;3961;42.058;25.586;2023-02-18T08:37:08;63314.56;;;9.75;60.82
7832;BME280;3961;42.058;25.586;2023-02-18T08:39:34;63351.28;;;10.05;59.79
7832;BME280;3961;42.058;25.586;2023-02-18T08:42:00;63402.31;;;10.53;58.90
7832;BME280;3961;42.058;25.586;2023-02-18T08:44:26;63435.25;;;10.82;58.06
7832;BME280;3961;42.058;25.586;2023-02-18T08:46:52;63432.94;;;10.80;57.01
7832;BME280;3961;42.058;25.586;2023-02-18T08:49:17;63489.34;;;11.27;57.53
7832;BME280;3961;42.058;25.586;2023-02-18T08:51:47;63543.09;;;11.74;56.60
7832;BME280;3961;42.058;25.586;2023-02-18T08:54:13;63597.38;;;12.26;55.56
7832;BME280;3961;42.058;25.586;2023-02-18T08:56:38;63578.38;;;12.05;53.54
7832;BME280;3961;42.058;25.586;2023-02-18T08:59:04;63570.31;;;11.98;53.07
7832;BME280;3961;42.058;25.586;2023-02-18T09:01:30;63566.84;;;11.95;53.18
7832;BME280;3961;42.058;25.586;2023-02-18T09:03:55;63574.81;;;12.06;53.34
7832;BME280;3961;42.058;25.586;2023-02-18T09:06:21;63573.19;;;12.00;53.38
7832;BME280;3961;42.058;25.586;2023-02-18T09:08:47;63570.53;;;12.00;54.03
7832;BME280;3961;42.058;25.586;2023-02-18T09:11:13;63585.00;;;12.13;53.13
7832;BME280;3961;42.058;25.586;2023-02-18T09:13:39;63598.66;;;12.23;52.63
7832;BME280;3961;42.058;25.586;2023-02-18T09:16:09;63620.88;;;12.44;52.65
7832;BME280;3961;42.058;25.586;2023-02-18T09:18:35;63629.91;;;12.50;52.28
7832;BME280;3961;42.058;25.586;2023-02-18T09:21:01;63682.34;;;12.94;51.17
7832;BME280;3961;42.058;25.586;2023-02-18T09:23:29;63693.47;;;13.10;50.83
7832;BME280;3961;42.058;25.586;2023-02-18T09:25:55;63728.00;;;13.38;49.17
7832;BME280;3961;42.058;25.586;2023-02-18T09:28:21;63716.44;;;13.28;48.59
7832;BME280;3961;42.058;25.586;2023-02-18T09:30:47;63718.53;;;13.28;48.22
7832;BME280;3961;42.058;25.586;2023-02-18T09:33:12;63751.53;;;13.57;48.19
7832;BME280;3961;42.058;25.586;2023-02-18T09:35:42;63749.22;;;13.55;48.06
7832;BME280;3961;42.058;25.586;2023-02-18T09:38:12;63792.94;;;13.95;48.43
7832;BME280;3961;42.058;25.586;2023-02-18T09:40:42;63816.47;;;14.13;46.38
7832;BME280;3961;42.058;25.586;2023-02-18T09:43:20;63832.69;;;14.28;45.74
7832;BME280;3961;42.058;25.586;2023-02-18T09:45:48;63902.34;;;14.89;45.83
7832;BME280;3961;42.058;25.586;2023-02-18T09:48:15;63940.28;;;15.24;42.88
7832;BME280;3961;42.058;25.586;2023-02-18T09:50:40;63992.09;;;15.65;41.30
7832;BME280;3961;42.058;25.586;2023-02-18T09:53:10;64032.78;;;16.00;40.61
7832;BME280;3961;42.058;25.586;2023-02-18T09:55:38;64050.44;;;16.18;40.41
7832;BME280;3961;42.058;25.586;2023-02-18T09:58:14;64052.75;;;16.20;38.64
7832;BME280;3961;42.058;25.586;2023-02-18T10:00:48;64060.19;;;16.31;38.86
7832;BME280;3961;42.058;25.586;2023-02-18T10:03:20;64056.25;;;16.23;38.06
7832;BME280;3961;42.058;25.586;2023-02-18T10:06:00;64050.09;;;16.20;38.46
7832;BME280;3961;42.058;25.586;2023-02-18T10:08:28;64054.50;;;16.22;38.73
7832;BME280;3961;42.058;25.586;2023-02-18T10:10:54;64068.69;;;16.36;38.72
7832;BME280;3961;42.058;25.586;2023-02-18T10:13:26;64068.44;;;16.34;37.60
7832;BME280;3961;42.058;25.586;2023-02-18T10:15:52;64083.22;;;16.49;38.18
7832;BME280;3961;42.058;25.586;2023-02-18T10:18:25;64079.50;;;16.43;37.92
7832;BME280;3961;42.058;25.586;2023-02-18T10:21:05;64087.06;;;16.50;38.45
7832;BME280;3961;42.058;25.586;2023-02-18T10:23:33;64089.03;;;16.54;38.15
7832;BME280;3961;42.058;25.586;2023-02-18T10:26:03;64108.34;;;16.66;38.31
7832;BME280;3961;42.058;25.586;2023-02-18T10:28:30;64118.13;;;16.79;37.53
7832;BME280;3961;42.058;25.586;2023-02-18T10:30:59;64132.78;;;16.88;37.78
7832;BME280;3961;42.058;25.586;2023-02-18T10:36:22;64149.28;;;17.04;37.93
7832;BME280;3961;42.058;25.586;2023-02-18T10:44:03;64189.09;;;17.41;37.26
7832;BME280;3961;42.058;25.586;2023-02-18T10:46:40;64212.34;;;17.62;36.22
7832;BME280;3961;42.058;25.586;2023-02-18T10:51:55;64248.25;;;17.91;35.19
7832;BME280;3961;42.058;25.586;2023-02-18T10:54:26;64256.63;;;18.00;35.43
7832;BME280;3961;42.058;25.586;2023-02-18T10:56:52;64282.00;;;18.20;34.35
7832;BME280;3961;42.058;25.586;2023-02-18T10:59:25;64274.22;;;18.11;33.97
7832;BME280;3961;42.058;25.586;2023-02-18T11:02:10;64308.81;;;18.43;33.74
7832;BME280;3961;42.058;25.586;2023-02-18T11:04:39;64337.38;;;18.68;33.53
7832;BME280;3961;42.058;25.586;2023-02-18T11:07:30;64358.34;;;18.87;32.89
7832;BME280;3961;42.058;25.586;2023-02-18T11:10:08;64389.03;;;19.11;32.78
7832;BME280;3961;42.058;25.586;2023-02-18T11:12:44;64435.69;;;19.52;34.09
7832;BME280;3961;42.058;25.586;2023-02-18T11:17:40;64422.13;;;19.44;30.42
7832;BME280;3961;42.058;25.586;2023-02-18T11:20:33;64390.19;;;19.12;30.19
7832;BME280;3961;42.058;25.586;2023-02-18T11:25:31;64385.19;;;19.10;29.94
7832;BME280;3961;42.058;25.586;2023-02-18T11:28:51;64375.50;;;19.04;30.31
7832;BME280;3961;42.058;25.586;2023-02-18T11:30:57;64384.25;;;19.11;30.36
7832;BME280;3961;42.058;25.586;2023-02-18T11:33:34;64369.44;;;18.96;30.85
7832;BME280;3961;42.058;25.586;2023-02-18T11:36:29;64387.88;;;19.10;29.59
7832;BME280;3961;42.058;25.586;2023-02-18T11:38:58;64402.06;;;19.25;29.80
7832;BME280;3961;42.058;25.586;2023-02-18T11:41:39;64400.31;;;19.23;29.36
7832;BME280;3961;42.058;25.586;2023-02-18T11:44:30;64405.00;;;19.27;29.93
7832;BME280;3961;42.058;25.586;2023-02-18T11:49:24;64427.75;;;19.47;30.07
7832;BME280;3961;42.058;25.586;2023-02-18T11:51:50;64431.81;;;19.51;29.83
7832;BME280;3961;42.058;25.586;2023-02-18T11:54:27;64427.50;;;19.44;29.44
7832;BME280;3961;42.058;25.586;2023-02-18T11:57:13;64446.41;;;19.63;29.72
7832;BME280;3961;42.058;25.586;2023-02-18T11:59:39;64425.06;;;19.47;29.54
7832;BME280;3961;42.058;25.586;2023-02-18T12:04:40;64386.69;;;19.09;30.06
7832;BME280;3961;42.058;25.586;2023-02-18T12:07:17;64418.19;;;19.36;30.17
7832;BME280;3961;42.058;25.586;2023-02-18T12:09:57;64404.41;;;19.27;29.88
7832;BME280;3961;42.058;25.586;2023-02-18T12:12:26;64406.50;;;19.26;30.28
7832;BME280;3961;42.058;25.586;2023-02-18T12:14:56;64396.59;;;19.18;30.43
7832;BME280;3961;42.058;25.586;2023-02-18T12:34:10;64475.34;;;19.86;30.97
7832;BME280;3961;42.058;25.586;2023-02-18T12:37:12;64484.91;;;19.97;30.56
7832;BME280;3961;42.058;25.586;2023-02-18T12:45:31;64519.34;;;20.27;30.38
7832;BME280;3961;42.058;25.586;2023-02-18T12:50:48;64484.09;;;19.94;30.53
7832;BME280;3961;42.058;25.586;2023-02-18T13:01:37;64494.25;;;20.05;31.78
7832;BME280;3961;42.058;25.586;2023-02-18T13:04:26;64509.78;;;20.16;31.78
7832;BME280;3961;42.058;25.586;2023-02-18T13:14:51;64534.66;;;20.35;32.33
7832;BME280;3961;42.058;25.586;2023-02-18T13:17:23;64517.59;;;20.25;32.18
7832;BME280;3961;42.058;25.586;2023-02-18T13:22:21;64505.34;;;20.14;32.46
7832;BME280;3961;42.058;25.586;2023-02-18T13:24:49;64508.59;;;20.15;32.40
7832;BME280;3961;42.058;25.586;2023-02-18T13:27:40;64502.63;;;20.14;33.62
7832;BME280;3961;42.058;25.586;2023-02-18T13:30:15;64502.22;;;20.09;33.15
7832;BME280;3961;42.058;25.586;2023-02-18T13:35:33;64496.59;;;20.07;32.91
7832;BME280;3961;42.058;25.586;2023-02-18T13:40:44;64500.47;;;20.08;33.23
7832;BME280;3961;42.058;25.586;2023-02-18T13:46:03;64550.88;;;20.54;32.85
7832;BME280;3961;42.058;25.586;2023-02-18T13:48:29;64571.09;;;20.69;32.58
7832;BME280;3961;42.058;25.586;2023-02-18T13:51:03;64600.53;;;20.97;31.83
7832;BME280;3961;42.058;25.586;2023-02-18T13:53:35;64592.56;;;20.93;32.09
7832;BME280;3961;42.058;25.586;2023-02-18T13:56:21;64593.28;;;20.89;31.67
7832;BME280;3961;42.058;25.586;2023-02-18T13:58:54;64586.28;;;20.83;31.92
7832;BME280;3961;42.058;25.586;2023-02-18T14:03:53;64565.25;;;20.64;32.21
7832;BME280;3961;42.058;25.586;2023-02-18T14:06:28;64561.75;;;20.61;32.95
7832;BME280;3961;42.058;25.586;2023-02-18T14:11:56;64589.44;;;20.88;32.40
7832;BME280;3961;42.058;25.586;2023-02-18T14:22:43;64650.00;;;21.38;31.54
7832;BME280;3961;42.058;25.586;2023-02-18T14:27:35;64628.34;;;21.19;30.98
7832;BME280;3961;42.058;25.586;2023-02-18T14:30:23;64632.44;;;21.23;31.01
7832;BME280;3961;42.058;25.586;2023-02-18T14:32:51;64601.94;;;21.01;31.21
7832;BME280;3961;42.058;25.586;2023-02-18T14:38:33;64590.97;;;20.87;32.10
7832;BME280;3961;42.058;25.586;2023-02-18T14:52:05;64522.03;;;20.27;33.16
7832;BME280;3961;42.058;25.586;2023-02-18T14:54:35;64499.50;;;20.09;33.69
7832;BME280;3961;42.058;25.586;2023-02-18T14:57:08;64492.50;;;20.03;33.64
7832;BME280;3961;42.058;25.586;2023-02-18T14:59:40;64485.28;;;19.95;34.48
7832;BME280;3961;42.058;25.586;2023-02-18T15:02:22;64468.00;;;19.82;34.55
7832;BME280;3961;42.058;25.586;2023-02-18T15:04:48;64459.84;;;19.75;34.71
7832;BME280;3961;42.058;25.586;2023-02-18T15:07:18;64454.00;;;19.70;34.81
7832;BME280;3961;42.058;25.586;2023-02-18T15:09:48;64451.91;;;19.70;35.09
7832;BME280;3961;42.058;25.586;2023-02-18T15:12:20;64430.88;;;19.52;35.25
7832;BME280;3961;42.058;25.586;2023-02-18T15:14:47;64429.25;;;19.46;35.57
7832;BME280;3961;42.058;25.586;2023-02-18T15:17:18;64414.31;;;19.35;35.76
7832;BME280;3961;42.058;25.586;2023-02-18T15:19:52;64398.00;;;19.21;35.50
7832;BME280;3961;42.058;25.586;2023-02-18T15:22:23;64390.44;;;19.15;35.54
7832;BME280;3961;42.058;25.586;2023-02-18T15:24:51;64381.44;;;19.04;34.79
7832;BME280;3961;42.058;25.586;2023-02-18T15:27:21;64381.09;;;19.06;35.10
7832;BME280;3961;42.058;25.586;2023-02-18T15:29:51;64370.59;;;18.97;35.17
7832;BME280;3961;42.058;25.586;2023-02-18T15:34:43;64355.47;;;18.84;35.45
7832;BME280;3961;42.058;25.586;2023-02-18T15:37:12;64337.97;;;18.69;36.09
7832;BME280;3961;42.058;25.586;2023-02-18T15:39:38;64328.63;;;18.61;35.83
7832;BME280;3961;42.058;25.586;2023-02-18T15:44:45;64298.56;;;18.37;36.50
7832;BME280;3961;42.058;25.586;2023-02-18T15:47:11;64301.38;;;18.32;36.46
7832;BME280;3961;42.058;25.586;2023-02-18T15:49:38;64314.06;;;18.48;36.56
7832;BME280;3961;42.058;25.586;2023-02-18T15:52:09;64311.72;;;18.46;36.71
7832;BME280;3961;42.058;25.586;2023-02-18T15:54:38;64292.13;;;18.31;35.91
7832;BME280;3961;42.058;25.586;2023-02-18T15:57:05;64307.28;;;18.44;36.13